Time;durP1;ratioP1;P1;durP2;ratioP2;P2;SDS_P1;SDS_P2;PMS_P1;PMS_P2;Temp;Humidity;BMP_temperature;BMP_pressure;BME280_temperature;BME280_humidity;BME280_pressure;Samples;Min_cycle;Max_cycle;Signal;HPM_P1;HPM_P2
2023/04/20 00:00:13;;;;;;;6.78;3.00;;;7.80;65.00;;;;;;5023730;28;20523;-66
2023/04/20 00:02:39;;;;;;;6.43;2.72;;;7.90;65.30;;;;;;5004971;28;20057;-67
2023/04/20 00:05:08;;;;;;;4.65;2.80;;;7.90;66.10;;;;;;5004339;28;20045;-66
2023/04/20 00:07:34;;;;;;;6.95;3.17;;;7.90;65.20;;;;;;4990143;28;23104;-67
2023/04/20 00:10:00;;;;;;;4.97;2.80;;;8.00;65.20;;;;;;4992213;28;20045;-66
2023/04/20 00:12:26;;;;;;;4.53;2.58;;;8.00;66.00;;;;;;4992541;28;20124;-66
2023/04/20 00:14:52;;;;;;;5.25;2.60;;;8.00;65.20;;;;;;4990737;28;20063;-66
2023/04/20 00:17:18;;;;;;;4.47;2.70;;;8.10;65.40;;;;;;4990784;28;20055;-66
2023/04/20 00:19:45;;;;;;;9.05;2.80;;;8.10;65.40;;;;;;5010479;28;20044;-65
2023/04/20 00:22:10;;;;;;;3.50;2.60;;;8.10;65.50;;;;;;4994075;28;20416;-67
2023/04/20 00:24:36;;;;;;;6.25;2.70;;;8.20;65.70;;;;;;5010671;28;20048;-66
2023/04/20 00:27:02;;;;;;;4.80;2.67;;;8.20;65.60;;;;;;4998672;28;20045;-67
2023/04/20 00:29:27;;;;;;;3.70;2.40;;;8.20;65.60;;;;;;5001105;28;20030;-65
2023/04/20 00:31:53;;;;;;;6.00;2.38;;;8.20;65.80;;;;;;5018810;28;20069;-67
2023/04/20 00:34:19;;;;;;;4.07;2.55;;;8.20;65.90;;;;;;4987355;28;20041;-65
2023/04/20 00:36:44;;;;;;;5.28;2.50;;;8.30;66.10;;;;;;4999944;28;20478;-67
2023/04/20 00:39:10;;;;;;;3.63;2.67;;;8.30;66.40;;;;;;5017564;28;20069;-67
2023/04/20 00:41:35;;;;;;;4.13;2.08;;;8.30;66.40;;;;;;5000134;28;20045;-68
2023/04/20 00:44:01;;;;;;;5.50;2.58;;;8.30;66.20;;;;;;5019426;28;20099;-66
2023/04/20 00:46:27;;;;;;;6.38;2.83;;;8.30;66.30;;;;;;5002867;28;20401;-66
2023/04/20 00:48:53;;;;;;;5.43;2.35;;;8.40;66.50;;;;;;4999711;28;20079;-65
2023/04/20 00:51:20;;;;;;;5.25;2.67;;;8.40;66.60;;;;;;5017434;28;20056;-66
2023/04/20 00:53:46;;;;;;;5.80;2.45;;;8.40;66.70;;;;;;4982613;28;20033;-67
2023/04/20 00:56:15;;;;;;;4.25;2.42;;;8.40;66.70;;;;;;4999759;28;20447;-66
2023/04/20 00:58:44;;;;;;;4.40;2.63;;;8.40;67.00;;;;;;5005558;28;20076;-66
2023/04/20 01:01:11;;;;;;;5.57;1.90;;;8.40;67.10;;;;;;5005494;28;20148;-66
2023/04/20 01:03:38;;;;;;;3.72;2.35;;;8.40;67.10;;;;;;5020930;28;20394;-66
2023/04/20 01:06:04;;;;;;;3.83;2.28;;;8.40;66.90;;;;;;5004806;28;20092;-67
2023/04/20 01:08:30;;;;;;;3.88;2.25;;;8.50;66.90;;;;;;5005332;28;20045;-65
2023/04/20 01:10:56;;;;;;;4.18;2.42;;;8.40;67.00;;;;;;4997641;28;20045;-67
2023/04/20 01:13:22;;;;;;;6.88;2.30;;;8.50;67.20;;;;;;4996708;28;20084;-65
2023/04/20 01:15:48;;;;;;;4.97;2.40;;;8.50;67.20;;;;;;4993634;28;20137;-68
2023/04/20 01:18:14;;;;;;;3.45;1.95;;;8.50;67.20;;;;;;4993076;28;20046;-67
2023/04/20 01:20:40;;;;;;;3.47;2.00;;;8.50;67.20;;;;;;4992100;28;20052;-67
2023/04/20 01:23:06;;;;;;;2.75;1.92;;;8.50;67.30;;;;;;4974389;28;20046;-66
2023/04/20 01:25:31;;;;;;;6.30;2.10;;;8.60;67.30;;;;;;5001579;28;20069;-67
2023/04/20 01:27:57;;;;;;;3.28;2.10;;;8.60;67.00;;;;;;4990427;28;20037;-67
2023/04/20 01:30:22;;;;;;;6.03;2.13;;;8.60;67.60;;;;;;4991486;28;20041;-67
2023/04/20 01:32:48;;;;;;;5.97;2.15;;;8.60;66.60;;;;;;4991461;28;20041;-66
2023/04/20 01:35:15;;;;;;;6.88;2.40;;;8.60;66.20;;;;;;4990412;28;20051;-68
2023/04/20 01:37:41;;;;;;;3.03;2.08;;;8.60;66.10;;;;;;4996914;28;20125;-67
2023/04/20 01:40:12;;;;;;;5.13;2.00;;;8.60;65.80;;;;;;4997260;28;20056;-66
2023/04/20 01:42:38;;;;;;;4.07;1.92;;;8.60;65.80;;;;;;5011114;28;20034;-65
2023/04/20 01:45:05;;;;;;;5.07;1.92;;;8.60;65.40;;;;;;4988153;28;20037;-68
2023/04/20 01:47:31;;;;;;;7.65;2.75;;;8.70;65.40;;;;;;5025671;28;20053;-68
2023/04/20 01:49:56;;;;;;;6.88;2.83;;;8.60;65.30;;;;;;5006718;28;20405;-65
2023/04/20 01:52:22;;;;;;;4.25;2.50;;;8.70;65.20;;;;;;5006875;28;20050;-67
2023/04/20 01:54:47;;;;;;;6.15;2.45;;;8.60;65.20;;;;;;5005996;28;20045;-65
2023/04/20 01:57:13;;;;;;;4.72;2.83;;;8.60;65.20;;;;;;5006783;28;20187;-65
2023/04/20 01:59:39;;;;;;;3.35;2.17;;;8.50;65.40;;;;;;4989848;28;20104;-66
2023/04/20 02:04:48;;;;;;;4.43;2.40;;;8.60;65.80;;;;;;5002138;28;20072;-67
2023/04/20 02:07:14;;;;;;;3.17;1.90;;;8.60;65.90;;;;;;5000770;28;20064;-66
2023/04/20 02:09:39;;;;;;;4.75;1.83;;;8.60;65.90;;;;;;4999817;28;20045;-66
2023/04/20 02:12:05;;;;;;;5.78;2.20;;;8.60;66.00;;;;;;5008025;28;20049;-65
2023/04/20 02:14:30;;;;;;;5.25;1.80;;;8.60;66.00;;;;;;5012922;28;20091;-64
2023/04/20 02:16:56;;;;;;;6.53;2.15;;;8.50;66.20;;;;;;5009648;28;20072;-66
2023/04/20 02:19:21;;;;;;;5.45;2.00;;;8.60;66.30;;;;;;5007791;28;20128;-65
2023/04/20 02:21:47;;;;;;;3.22;1.83;;;8.50;66.30;;;;;;5007613;28;20128;-64
2023/04/20 02:24:12;;;;;;;5.53;2.40;;;8.60;66.20;;;;;;5006043;28;20057;-67
2023/04/20 02:26:38;;;;;;;3.88;2.00;;;8.60;66.10;;;;;;5002988;28;20091;-66
2023/04/20 02:29:03;;;;;;;6.22;2.15;;;8.60;66.00;;;;;;5001870;28;20132;-62
2023/04/20 02:31:29;;;;;;;4.05;2.00;;;8.60;66.00;;;;;;5004219;28;20548;-65
2023/04/20 02:33:55;;;;;;;5.65;1.95;;;8.50;65.90;;;;;;5020976;28;20481;-66
2023/04/20 02:36:20;;;;;;;6.35;2.00;;;8.50;66.00;;;;;;5017411;28;20040;-66
2023/04/20 02:38:46;;;;;;;3.83;2.30;;;8.50;66.10;;;;;;5003188;28;20041;-66
2023/04/20 02:41:11;;;;;;;5.22;2.47;;;8.40;66.40;;;;;;5004926;28;20092;-66
2023/04/20 02:43:37;;;;;;;3.95;2.30;;;8.40;66.70;;;;;;5003916;28;20084;-64
2023/04/20 02:46:03;;;;;;;6.82;2.03;;;8.30;67.00;;;;;;5002032;28;20041;-67
2023/04/20 02:48:28;;;;;;;2.83;2.13;;;8.30;67.20;;;;;;5005479;28;20437;-65
2023/04/20 02:50:55;;;;;;;4.85;1.90;;;8.30;67.30;;;;;;5020906;28;20073;-66
2023/04/20 02:53:21;;;;;;;2.38;1.83;;;8.30;67.50;;;;;;5018111;28;20997;-65
2023/04/20 02:55:46;;;;;;;3.10;1.98;;;8.30;67.50;;;;;;4984344;28;20045;-66
2023/04/20 02:58:12;;;;;;;6.95;2.25;;;8.30;67.70;;;;;;5005857;28;20044;-65
2023/04/20 03:00:38;;;;;;;4.57;2.10;;;8.30;67.70;;;;;;5003539;28;20029;-65
2023/04/20 03:03:03;;;;;;;8.05;2.70;;;8.30;67.90;;;;;;5002344;28;20102;-67
2023/04/20 03:05:29;;;;;;;5.03;2.45;;;8.30;67.90;;;;;;5000024;28;20040;-65
2023/04/20 03:07:55;;;;;;;2.95;1.70;;;8.30;68.00;;;;;;5003387;28;20048;-66
2023/04/20 03:10:21;;;;;;;4.55;2.05;;;8.20;68.30;;;;;;5004197;28;20060;-68
2023/04/20 03:12:46;;;;;;;6.38;2.38;;;8.30;68.10;;;;;;5021047;28;20426;-65
2023/04/20 03:15:12;;;;;;;3.97;2.13;;;8.20;68.00;;;;;;5002833;28;20076;-66
2023/04/20 03:17:37;;;;;;;4.93;2.20;;;8.20;67.40;;;;;;5002006;28;20040;-66
2023/04/20 03:20:04;;;;;;;3.25;1.80;;;8.30;66.90;;;;;;5001572;28;20473;-66
2023/04/20 03:22:29;;;;;;;5.10;2.05;;;8.30;65.40;;;;;;5022242;28;20454;-65
2023/04/20 03:24:55;;;;;;;4.82;2.17;;;8.30;64.20;;;;;;5003357;28;20048;-66
2023/04/20 03:27:20;;;;;;;4.72;2.55;;;8.30;63.70;;;;;;5000186;28;20124;-67
2023/04/20 03:29:47;;;;;;;6.35;2.08;;;8.30;63.30;;;;;;5017190;28;20048;-64
2023/04/20 03:32:13;;;;;;;3.75;2.05;;;8.30;63.00;;;;;;5000628;28;20095;-64
2023/04/20 03:34:38;;;;;;;5.50;2.22;;;8.30;63.00;;;;;;5000464;28;20029;-66
2023/04/20 03:37:04;;;;;;;5.32;2.15;;;8.30;62.90;;;;;;5002954;28;20183;-65
2023/04/20 03:39:30;;;;;;;6.85;2.67;;;8.30;62.90;;;;;;5017729;28;20054;-65
2023/04/20 03:41:56;;;;;;;6.32;2.35;;;8.30;63.20;;;;;;5005238;28;20045;-65
2023/04/20 03:44:21;;;;;;;6.57;2.13;;;8.30;63.50;;;;;;5021977;28;20483;-66
2023/04/20 03:46:47;;;;;;;6.65;2.20;;;8.30;64.10;;;;;;5002025;28;20071;-67
2023/04/20 03:49:12;;;;;;;4.55;2.50;;;8.20;64.80;;;;;;4993565;28;20049;-68
2023/04/20 03:51:38;;;;;;;9.35;2.50;;;8.20;65.90;;;;;;5017125;28;20144;-66
2023/04/20 03:54:05;;;;;;;5.38;2.28;;;8.10;66.50;;;;;;5019817;28;20492;-66
2023/04/20 03:56:30;;;;;;;4.53;2.25;;;8.00;67.50;;;;;;5020913;28;20094;-65
2023/04/20 03:58:56;;;;;;;3.42;2.25;;;7.90;67.90;;;;;;5004783;28;20505;-64
2023/04/20 04:01:22;;;;;;;7.05;2.38;;;7.80;69.00;;;;;;5002725;28;20037;-67
2023/04/20 04:03:47;;;;;;;6.00;2.17;;;7.70;70.30;;;;;;5004458;28;20049;-67
2023/04/20 04:06:13;;;;;;;6.13;2.35;;;7.60;72.30;;;;;;5002077;28;20045;-66
2023/04/20 04:08:38;;;;;;;5.45;2.50;;;7.40;75.60;;;;;;5001153;28;20084;-66
2023/04/20 04:11:04;;;;;;;4.13;2.83;;;7.20;82.50;;;;;;5017532;28;20050;-67
2023/04/20 04:13:29;;;;;;;5.22;2.20;;;7.10;85.80;;;;;;5004300;28;20041;-66
2023/04/20 04:15:55;;;;;;;4.68;2.65;;;7.00;90.80;;;;;;5019376;28;20041;-66
2023/04/20 04:18:21;;;;;;;6.40;2.67;;;6.90;91.50;;;;;;5002997;28;20041;-66
2023/04/20 04:20:46;;;;;;;8.63;2.58;;;6.80;93.20;;;;;;5002251;28;20029;-65
2023/04/20 04:23:12;;;;;;;6.93;2.35;;;6.70;97.90;;;;;;5011007;28;20041;-66
2023/04/20 04:25:39;;;;;;;9.32;3.00;;;6.50;99.90;;;;;;5008735;28;20063;-66
2023/04/20 04:28:05;;;;;;;4.25;2.70;;;6.30;99.90;;;;;;5002402;28;20055;-66
2023/04/20 04:30:30;;;;;;;5.03;2.63;;;6.20;99.90;;;;;;5017670;28;20041;-64
2023/04/20 04:32:58;;;;;;;5.30;2.90;;;6.10;99.90;;;;;;4989449;28;20481;-64
2023/04/20 04:35:24;;;;;;;3.95;2.55;;;6.10;99.90;;;;;;5003583;28;20038;-66
2023/04/20 04:37:51;;;;;;;6.60;2.55;;;6.00;99.90;;;;;;5003336;28;20052;-64
2023/04/20 04:40:17;;;;;;;6.55;3.10;;;6.00;99.90;;;;;;5024182;28;20038;-65
2023/04/20 04:42:44;;;;;;;7.70;3.50;;;6.00;99.90;;;;;;5026078;28;20128;-65
2023/04/20 04:45:12;;;;;;;4.47;2.92;;;5.90;99.90;;;;;;5023462;28;20045;-66
2023/04/20 04:47:40;;;;;;;4.90;2.85;;;5.90;99.90;;;;;;5006928;28;20052;-64
2023/04/20 04:50:08;;;;;;;5.13;2.35;;;5.90;99.90;;;;;;5005646;28;20120;-67
2023/04/20 04:52:34;;;;;;;6.28;3.20;;;5.90;99.90;;;;;;5018937;28;20077;-65
2023/04/20 04:54:59;;;;;;;7.75;2.80;;;5.90;99.90;;;;;;4988700;28;20048;-65
2023/04/20 04:57:25;;;;;;;4.03;2.67;;;5.80;99.90;;;;;;4994035;28;20425;-67
2023/04/20 04:59:51;;;;;;;5.50;2.53;;;5.80;99.90;;;;;;4955829;28;1058987;-63
2023/04/20 05:02:17;;;;;;;4.18;2.50;;;5.80;99.90;;;;;;5017376;28;20045;-65
2023/04/20 05:04:42;;;;;;;6.00;2.75;;;5.80;99.90;;;;;;5007143;28;20041;-64
2023/04/20 05:07:10;;;;;;;6.20;2.78;;;5.80;99.90;;;;;;5010279;28;20045;-64
2023/04/20 05:09:36;;;;;;;6.35;2.80;;;5.80;99.90;;;;;;5014451;28;20068;-65
2023/04/20 05:12:02;;;;;;;4.65;2.40;;;5.80;99.90;;;;;;5008052;28;20080;-65
2023/04/20 05:14:30;;;;;;;6.32;2.63;;;5.80;99.90;;;;;;5009901;28;20045;-64
2023/04/20 05:16:57;;;;;;;5.07;2.75;;;5.90;99.90;;;;;;5011688;28;20374;-65
2023/04/20 05:19:22;;;;;;;5.20;2.80;;;5.90;99.90;;;;;;5002193;28;20053;-64
2023/04/20 05:21:48;;;;;;;3.58;2.10;;;5.90;99.90;;;;;;5012116;28;20042;-63
2023/04/20 05:24:13;;;;;;;5.10;2.70;;;5.90;99.90;;;;;;5031607;28;20501;-64
2023/04/20 05:26:39;;;;;;;5.45;2.33;;;5.90;99.90;;;;;;5009071;28;20402;-63
2023/04/20 05:29:04;;;;;;;4.95;2.47;;;5.90;99.90;;;;;;5014109;28;20045;-64
2023/04/20 05:31:32;;;;;;;6.05;3.00;;;5.90;99.90;;;;;;5026265;28;20049;-65
2023/04/20 05:33:58;;;;;;;2.95;2.08;;;5.90;99.90;;;;;;5008904;28;20033;-66
2023/04/20 05:36:23;;;;;;;6.70;2.70;;;6.00;99.90;;;;;;5007408;28;22726;-64
2023/04/20 05:38:49;;;;;;;3.63;2.13;;;6.00;99.90;;;;;;5009118;28;20112;-62
2023/04/20 05:41:15;;;;;;;5.90;2.67;;;5.90;99.90;;;;;;5011808;28;20351;-64
2023/04/20 05:43:40;;;;;;;6.38;2.60;;;5.90;99.90;;;;;;5030529;28;20920;-64
2023/04/20 05:46:06;;;;;;;6.18;2.53;;;5.90;99.90;;;;;;5031112;28;20038;-65
2023/04/20 05:48:31;;;;;;;4.45;2.03;;;5.90;99.90;;;;;;5010136;28;20044;-63
2023/04/20 05:50:57;;;;;;;6.78;2.58;;;5.90;99.90;;;;;;5019940;28;20056;-64
2023/04/20 05:53:22;;;;;;;4.43;2.78;;;5.90;99.90;;;;;;5013979;28;20033;-64
2023/04/20 05:55:48;;;;;;;5.40;2.40;;;5.90;99.90;;;;;;5006400;28;20041;-64
2023/04/20 05:58:14;;;;;;;4.90;2.45;;;5.90;99.90;;;;;;5011883;28;20038;-64
2023/04/20 06:00:40;;;;;;;3.97;2.35;;;5.90;99.90;;;;;;5026454;28;20076;-64
2023/04/20 06:03:05;;;;;;;5.90;3.00;;;5.90;99.90;;;;;;5011847;28;20081;-64
2023/04/20 06:05:31;;;;;;;6.80;2.88;;;5.90;99.90;;;;;;5009657;28;20068;-64
2023/04/20 06:07:56;;;;;;;4.47;2.60;;;5.90;99.90;;;;;;5049404;28;20055;-63
2023/04/20 06:10:22;;;;;;;6.55;3.08;;;5.90;99.90;;;;;;5027019;28;20087;-65
2023/04/20 06:12:48;;;;;;;5.68;2.60;;;5.80;99.90;;;;;;5013630;28;20041;-65
2023/04/20 06:15:13;;;;;;;6.85;2.95;;;5.80;99.90;;;;;;5029667;28;20044;-62
2023/04/20 06:17:39;;;;;;;6.22;2.65;;;5.70;99.90;;;;;;5031692;28;20634;-64
2023/04/20 06:20:09;;;;;;;6.72;3.10;;;5.70;99.90;;;;;;5007615;28;20064;-63
2023/04/20 06:22:35;;;;;;;6.03;2.92;;;5.60;99.90;;;;;;5012281;28;20041;-67
2023/04/20 06:25:01;;;;;;;5.90;2.80;;;5.70;99.90;;;;;;5014564;28;20053;-65
2023/04/20 06:27:27;;;;;;;5.88;2.13;;;5.60;99.90;;;;;;5013695;28;20634;-64
2023/04/20 06:29:53;;;;;;;6.57;2.72;;;5.50;99.90;;;;;;5014202;28;20065;-69
2023/04/20 06:32:19;;;;;;;3.88;2.15;;;5.30;99.90;;;;;;4996172;28;20041;-65
2023/04/20 06:34:46;;;;;;;5.38;2.75;;;5.10;99.90;;;;;;5002702;28;20045;-65
2023/04/20 06:37:12;;;;;;;7.20;3.22;;;5.00;99.90;;;;;;5016161;28;20091;-63
2023/04/20 06:39:37;;;;;;;6.13;2.88;;;4.90;99.90;;;;;;5009041;28;20369;-67
2023/04/20 06:42:03;;;;;;;4.95;2.72;;;4.80;99.90;;;;;;4980168;28;20498;-65
2023/04/20 06:44:28;;;;;;;5.82;3.08;;;4.70;99.90;;;;;;5031390;28;20044;-65
2023/04/20 06:46:54;;;;;;;7.32;3.58;;;4.60;99.90;;;;;;5013025;28;20123;-64
2023/04/20 06:49:20;;;;;;;4.75;2.97;;;4.60;99.90;;;;;;5028483;28;20489;-63
2023/04/20 06:51:45;;;;;;;4.90;3.33;;;4.60;99.90;;;;;;5006687;28;20112;-64
2023/04/20 06:54:11;;;;;;;8.10;3.80;;;4.60;99.90;;;;;;4997995;28;20048;-65
2023/04/20 06:56:37;;;;;;;7.28;3.58;;;4.70;99.90;;;;;;5011118;28;20033;-63
2023/04/20 06:59:02;;;;;;;8.70;3.95;;;4.80;99.90;;;;;;5030780;28;20054;-64
2023/04/20 07:01:28;;;;;;;6.65;3.38;;;4.80;99.90;;;;;;5027387;28;20037;-66
2023/04/20 07:03:53;;;;;;;7.63;3.60;;;4.80;99.90;;;;;;5012973;28;20037;-63
2023/04/20 07:06:19;;;;;;;9.38;3.80;;;4.80;99.90;;;;;;5011361;28;20052;-64
2023/04/20 07:08:44;;;;;;;5.70;3.72;;;4.80;99.90;;;;;;5010985;28;20045;-67
2023/04/20 07:11:10;;;;;;;7.93;3.70;;;4.70;99.90;;;;;;5006515;28;20056;-64
2023/04/20 07:13:36;;;;;;;7.30;3.28;;;4.80;99.90;;;;;;5006114;28;20069;-67
2023/04/20 07:16:01;;;;;;;8.18;4.40;;;4.80;99.90;;;;;;5005640;28;20128;-65
2023/04/20 07:18:27;;;;;;;10.10;3.90;;;4.80;99.90;;;;;;5004358;28;20049;-65
2023/04/20 07:20:53;;;;;;;9.07;4.40;;;5.00;99.90;;;;;;5019879;28;20068;-65
2023/04/20 07:23:19;;;;;;;6.75;3.97;;;5.10;99.90;;;;;;4998136;28;20123;-66
2023/04/20 07:25:44;;;;;;;5.15;3.45;;;5.20;99.90;;;;;;4996511;28;20080;-64
2023/04/20 07:28:10;;;;;;;9.15;4.18;;;5.30;99.90;;;;;;5013305;28;20040;-65
2023/04/20 07:30:36;;;;;;;15.70;5.53;;;5.40;99.90;;;;;;4995625;28;20036;-65
2023/04/20 07:33:01;;;;;;;8.77;4.65;;;5.50;99.90;;;;;;5012874;28;20033;-64
2023/04/20 07:35:27;;;;;;;9.70;4.20;;;5.60;99.90;;;;;;5009161;28;20044;-66
2023/04/20 07:37:52;;;;;;;11.32;4.40;;;5.60;99.90;;;;;;5025432;28;20037;-64
2023/04/20 07:40:18;;;;;;;9.10;4.90;;;5.80;99.90;;;;;;5011375;28;20081;-63
2023/04/20 07:42:44;;;;;;;9.32;4.22;;;5.90;99.90;;;;;;5010880;28;20038;-64
2023/04/20 07:45:11;;;;;;;10.80;4.32;;;6.00;99.90;;;;;;5012662;28;20130;-65
2023/04/20 07:47:37;;;;;;;10.50;5.25;;;6.10;99.90;;;;;;5012608;28;20050;-63
2023/04/20 07:50:06;;;;;;;8.68;4.60;;;6.20;99.90;;;;;;5026877;28;20037;-64
2023/04/20 07:52:32;;;;;;;10.20;4.53;;;6.20;99.90;;;;;;5011863;28;20073;-65
2023/04/20 07:54:58;;;;;;;12.27;4.63;;;6.20;99.90;;;;;;5011677;28;20072;-64
2023/04/20 07:57:25;;;;;;;9.50;4.55;;;6.10;99.90;;;;;;5010902;28;20048;-65
2023/04/20 07:59:50;;;;;;;9.38;5.00;;;6.10;99.90;;;;;;5019351;28;20053;-65
2023/04/20 08:02:16;;;;;;;7.78;4.60;;;6.10;99.90;;;;;;5012840;28;20378;-64
2023/04/20 08:04:43;;;;;;;7.93;4.22;;;6.10;99.90;;;;;;5026225;28;20072;-63
2023/04/20 08:07:09;;;;;;;10.18;4.43;;;6.20;99.90;;;;;;5008803;28;20049;-64
2023/04/20 08:09:35;;;;;;;11.90;4.60;;;6.30;99.90;;;;;;5028802;28;20041;-62
2023/04/20 08:12:01;;;;;;;9.50;4.70;;;6.30;99.90;;;;;;5011579;28;20488;-64
2023/04/20 08:14:26;;;;;;;7.18;4.15;;;6.20;99.90;;;;;;5028865;28;20456;-63
2023/04/20 08:16:52;;;;;;;9.77;4.10;;;6.10;99.90;;;;;;5030177;28;20508;-65
2023/04/20 08:19:18;;;;;;;7.47;4.32;;;6.10;99.90;;;;;;5029369;28;20036;-64
2023/04/20 08:21:43;;;;;;;8.60;3.92;;;6.10;99.90;;;;;;5007665;28;20037;-63
2023/04/20 08:24:09;;;;;;;10.38;4.68;;;6.10;99.90;;;;;;5020406;28;20048;-63
2023/04/20 08:26:35;;;;;;;9.80;4.75;;;6.30;99.90;;;;;;5008667;28;20129;-62
2023/04/20 08:29:02;;;;;;;8.70;4.63;;;6.30;99.90;;;;;;5029740;28;20033;-62
2023/04/20 08:31:27;;;;;;;10.70;5.18;;;6.40;99.90;;;;;;5024132;28;20041;-63
2023/04/20 08:33:53;;;;;;;10.95;4.78;;;6.50;99.90;;;;;;5021489;28;20032;-65
2023/04/20 08:36:19;;;;;;;10.98;5.03;;;6.40;99.90;;;;;;5009149;28;20037;-62
2023/04/20 08:38:44;;;;;;;11.88;5.10;;;6.50;99.90;;;;;;5029305;28;20413;-64
2023/04/20 08:41:12;;;;;;;9.88;4.90;;;6.40;99.90;;;;;;5028266;28;20055;-63
2023/04/20 08:43:38;;;;;;;7.75;4.25;;;6.40;99.90;;;;;;5029935;28;20045;-62
2023/04/20 08:46:04;;;;;;;8.60;4.80;;;6.30;99.90;;;;;;5011574;28;20057;-63
2023/04/20 08:48:35;;;;;;;10.80;4.80;;;6.30;99.90;;;;;;5024081;28;20043;-64
2023/04/20 08:51:02;;;;;;;8.30;4.80;;;6.20;99.90;;;;;;4992771;28;20041;-64
2023/04/20 08:53:28;;;;;;;8.18;4.68;;;6.30;99.90;;;;;;5009883;28;20052;-63
2023/04/20 08:55:56;;;;;;;9.50;5.13;;;6.50;99.90;;;;;;5027972;28;20037;-65
2023/04/20 08:58:24;;;;;;;9.27;4.93;;;6.40;99.90;;;;;;5005209;28;20061;-65
2023/04/20 09:00:50;;;;;;;14.23;5.78;;;6.40;99.90;;;;;;5016791;28;20041;-62
2023/04/20 09:03:15;;;;;;;7.25;4.50;;;6.50;99.90;;;;;;5025389;28;20041;-64
2023/04/20 09:05:43;;;;;;;9.93;5.00;;;6.50;99.90;;;;;;5008186;28;20038;-65
2023/04/20 09:08:09;;;;;;;8.25;4.93;;;6.50;99.90;;;;;;5010473;28;20383;-63
2023/04/20 09:10:41;;;;;;;9.18;4.68;;;6.60;99.90;;;;;;5009701;28;20061;-63
2023/04/20 09:13:06;;;;;;;11.02;4.93;;;6.60;99.90;;;;;;5006305;28;20049;-66
2023/04/20 09:15:32;;;;;;;8.63;5.00;;;6.60;99.90;;;;;;5007214;28;20104;-64
2023/04/20 09:17:58;;;;;;;11.52;4.93;;;6.60;99.90;;;;;;5008367;28;20034;-65
2023/04/20 09:20:41;;;;;;;12.65;5.70;;;6.60;99.90;;;;;;5016082;28;20033;-63
2023/04/20 09:23:18;;;;;;;9.70;4.90;;;6.60;99.90;;;;;;4985731;28;21421;-64
2023/04/20 09:25:45;;;;;;;10.88;5.55;;;6.70;99.90;;;;;;4997023;28;20201;-64
2023/04/20 09:28:12;;;;;;;10.32;5.13;;;6.90;99.90;;;;;;5024187;28;20045;-68
2023/04/20 09:30:43;;;;;;;11.35;5.55;;;6.90;99.90;;;;;;5009215;28;20384;-65
2023/04/20 09:33:13;;;;;;;12.90;6.15;;;7.00;99.90;;;;;;5009054;28;20045;-67
2023/04/20 09:35:43;;;;;;;10.82;5.45;;;7.00;99.90;;;;;;5011765;28;20474;-69
2023/04/20 09:38:09;;;;;;;10.93;5.38;;;7.00;99.90;;;;;;5024114;28;20385;-67
2023/04/20 09:40:35;;;;;;;10.20;5.97;;;6.90;99.90;;;;;;5021017;28;20033;-66
2023/04/20 09:43:21;;;;;;;14.70;5.88;;;7.00;99.90;;;;;;5005158;28;20029;-66
2023/04/20 09:45:47;;;;;;;15.00;5.68;;;6.90;99.90;;;;;;5006739;28;20088;-66
2023/04/20 09:48:17;;;;;;;10.32;6.30;;;6.90;99.90;;;;;;5026312;28;20053;-67
2023/04/20 09:50:43;;;;;;;10.23;5.78;;;7.00;99.90;;;;;;5013645;28;20091;-66
2023/04/20 09:53:09;;;;;;;8.95;5.85;;;7.10;99.90;;;;;;5009925;28;20041;-66
2023/04/20 09:55:36;;;;;;;9.13;5.45;;;7.10;99.90;;;;;;4988043;28;20190;-66
2023/04/20 09:58:03;;;;;;;11.73;5.25;;;7.30;99.90;;;;;;5009741;28;20030;-66
2023/04/20 10:00:29;;;;;;;11.40;5.70;;;7.40;99.90;;;;;;5007553;28;20136;-66
2023/04/20 10:02:55;;;;;;;11.02;5.25;;;7.40;99.90;;;;;;4996355;28;20128;-67
2023/04/20 10:05:32;;;;;;;9.38;5.70;;;7.40;99.90;;;;;;4990622;28;20085;-66
2023/04/20 10:08:00;;;;;;;8.77;4.93;;;7.40;99.90;;;;;;5012918;28;20466;-64
2023/04/20 10:10:25;;;;;;;10.80;5.93;;;7.30;99.90;;;;;;5029196;28;20037;-64
2023/04/20 10:12:53;;;;;;;10.02;5.95;;;7.20;99.90;;;;;;5007860;28;20508;-64
2023/04/20 10:15:23;;;;;;;9.30;6.20;;;7.20;99.90;;;;;;5016002;28;20477;-64
2023/04/20 10:17:48;;;;;;;9.53;5.70;;;7.20;99.90;;;;;;5011814;28;20102;-63
2023/04/20 10:20:25;;;;;;;9.10;6.05;;;7.30;99.90;;;;;;5004710;28;20038;-64
2023/04/20 10:22:52;;;;;;;10.40;5.30;;;7.40;99.90;;;;;;4992912;28;20047;-67
2023/04/20 10:25:24;;;;;;;7.68;5.80;;;7.40;99.90;;;;;;4980361;28;20049;-62
2023/04/20 10:27:58;;;;;;;10.60;6.32;;;7.40;99.90;;;;;;5023384;28;20045;-66
2023/04/20 10:30:28;;;;;;;8.98;6.10;;;7.40;99.90;;;;;;5015986;28;20076;-64
2023/04/20 10:33:09;;;;;;;10.65;6.05;;;7.40;99.90;;;;;;5013247;28;20087;-64
2023/04/20 10:35:53;;;;;;;9.80;6.20;;;7.40;99.90;;;;;;5033230;28;20037;-64
2023/04/20 10:38:33;;;;;;;10.68;6.47;;;7.40;99.90;;;;;;5003731;28;20044;-66
2023/04/20 10:41:06;;;;;;;12.52;7.05;;;7.50;99.90;;;;;;5014736;28;20110;-64
2023/04/20 10:43:34;;;;;;;17.52;7.07;;;7.40;99.90;;;;;;5005918;28;20045;-66
2023/04/20 10:45:59;;;;;;;11.90;6.50;;;7.40;99.90;;;;;;5015267;28;20151;-61
2023/04/20 10:48:25;;;;;;;12.60;7.18;;;7.40;99.90;;;;;;5028924;28;20120;-65
2023/04/20 10:50:50;;;;;;;13.95;8.10;;;7.40;99.90;;;;;;5012347;28;20049;-62
2023/04/20 10:53:21;;;;;;;13.68;8.30;;;7.40;99.90;;;;;;5028972;28;20038;-65
2023/04/20 10:55:47;;;;;;;19.05;8.25;;;7.70;99.90;;;;;;5018402;28;20141;-64
2023/04/20 10:58:23;;;;;;;16.65;8.20;;;8.30;99.90;;;;;;5018440;28;20085;-66
2023/04/20 11:01:04;;;;;;;13.82;8.38;;;8.80;99.90;;;;;;5015555;28;20065;-66
2023/04/20 11:03:32;;;;;;;13.35;7.85;;;8.90;99.90;;;;;;5010864;28;20029;-64
2023/04/20 11:06:01;;;;;;;14.75;8.55;;;8.80;99.90;;;;;;5017395;28;20045;-63
2023/04/20 11:08:40;;;;;;;14.00;7.70;;;8.60;99.90;;;;;;5011950;28;20083;-63
2023/04/20 11:11:20;;;;;;;16.90;8.65;;;8.40;99.90;;;;;;5014436;28;20563;-65
2023/04/20 11:13:46;;;;;;;14.30;8.00;;;8.20;99.90;;;;;;5021103;28;20116;-61
2023/04/20 11:16:13;;;;;;;15.65;7.78;;;8.10;99.90;;;;;;5020561;28;20041;-63
2023/04/20 11:18:55;;;;;;;10.88;6.65;;;8.00;99.90;;;;;;5026940;28;20045;-65
2023/04/20 11:21:21;;;;;;;14.10;7.60;;;8.00;99.90;;;;;;5031589;28;20045;-64
2023/04/20 11:23:48;;;;;;;11.73;7.18;;;8.10;99.90;;;;;;5009431;28;20037;-65
2023/04/20 11:26:14;;;;;;;12.50;6.90;;;8.40;99.90;;;;;;5012850;28;20560;-65
2023/04/20 11:28:55;;;;;;;18.13;8.57;;;8.80;99.90;;;;;;5010656;28;20099;-64
2023/04/20 11:31:20;;;;;;;15.90;8.10;;;9.20;99.90;;;;;;5008716;28;20045;-66
2023/04/20 11:33:46;;;;;;;13.88;7.95;;;9.50;99.90;;;;;;5011335;28;20414;-65
2023/04/20 11:36:20;;;;;;;13.23;8.40;;;10.00;99.90;;;;;;5007989;28;20068;-65
2023/04/20 11:38:45;;;;;;;13.68;8.15;;;10.30;99.90;;;;;;4995730;28;20064;-66
2023/04/20 11:41:11;;;;;;;15.95;8.20;;;10.50;99.90;;;;;;5005078;28;20045;-65
2023/04/20 11:43:36;;;;;;;13.43;7.50;;;10.60;99.90;;;;;;5013563;28;20037;-64
2023/04/20 11:46:02;;;;;;;11.30;6.75;;;10.60;99.90;;;;;;5013373;28;20029;-66
2023/04/20 11:48:30;;;;;;;12.85;8.38;;;10.60;99.90;;;;;;4995389;28;20110;-66
2023/04/20 11:50:56;;;;;;;14.93;9.77;;;10.60;99.90;;;;;;5010592;28;20045;-65
2023/04/20 11:53:21;;;;;;;13.98;8.48;;;10.90;99.90;;;;;;5008658;28;20044;-66
2023/04/20 11:55:48;;;;;;;16.20;8.80;;;10.80;99.90;;;;;;5012258;28;20120;-65
2023/04/20 11:58:13;;;;;;;13.32;9.18;;;11.00;99.90;;;;;;5008267;28;20528;-64
2023/04/20 12:00:39;;;;;;;15.13;9.15;;;11.20;99.90;;;;;;5025010;28;20039;-66
2023/04/20 12:03:05;;;;;;;11.10;7.95;;;11.40;99.90;;;;;;5010821;28;20037;-66
2023/04/20 12:05:31;;;;;;;12.10;7.35;;;11.60;99.90;;;;;;5023610;28;20477;-66
2023/04/20 12:07:56;;;;;;;9.32;6.45;;;11.70;99.90;;;;;;5007586;28;20037;-64
2023/04/20 12:10:22;;;;;;;9.45;6.50;;;11.40;99.90;;;;;;5003123;28;20420;-64
2023/04/20 12:12:48;;;;;;;9.50;6.95;;;11.10;99.90;;;;;;5010135;28;20068;-66
2023/04/20 12:15:13;;;;;;;11.20;7.72;;;10.70;99.90;;;;;;5002220;28;20037;-64
2023/04/20 12:17:39;;;;;;;15.43;7.60;;;10.80;99.90;;;;;;5030403;28;20037;-65
2023/04/20 12:20:07;;;;;;;11.23;7.03;;;10.80;99.90;;;;;;4992603;28;20048;-66
2023/04/20 12:22:33;;;;;;;15.70;8.10;;;11.00;99.90;;;;;;5029411;28;20045;-66
2023/04/20 12:24:59;;;;;;;11.85;6.97;;;10.60;99.90;;;;;;5007081;28;20396;-67
2023/04/20 12:27:25;;;;;;;12.75;7.78;;;10.40;99.90;;;;;;5014362;28;20045;-64
2023/04/20 12:29:51;;;;;;;11.43;7.45;;;10.60;99.90;;;;;;5015491;28;20041;-63
2023/04/20 12:32:16;;;;;;;17.88;8.27;;;10.90;99.90;;;;;;5007324;28;20061;-62
2023/04/20 12:34:42;;;;;;;13.05;7.68;;;10.90;99.90;;;;;;5025932;28;20116;-68
2023/04/20 12:37:08;;;;;;;10.77;6.60;;;10.90;99.90;;;;;;4993622;28;20052;-62
2023/04/20 12:39:33;;;;;;;10.60;7.22;;;11.00;97.70;;;;;;5013747;28;20045;-63
2023/04/20 12:41:59;;;;;;;13.18;8.20;;;10.90;97.60;;;;;;5028941;28;20029;-64
2023/04/20 12:44:24;;;;;;;12.15;7.47;;;11.60;97.70;;;;;;5011161;28;20124;-65
2023/04/20 12:46:50;;;;;;;11.95;8.02;;;11.60;98.60;;;;;;5004606;28;20038;-63
2023/04/20 12:49:16;;;;;;;10.80;7.10;;;11.40;96.00;;;;;;5023856;28;20037;-64
2023/04/20 12:51:41;;;;;;;14.38;7.85;;;11.40;94.40;;;;;;4990988;28;20041;-62